sensor_id;sensor_type;location;lat;lon;timestamp;temperature;humidity
58993;DHT22;44782;0.000;0.000;2023-02-28T00:01:42;12.90;45.60
58993;DHT22;44782;0.000;0.000;2023-02-28T00:03:58;12.90;45.60
58993;DHT22;44782;0.000;0.000;2023-02-28T00:06:14;12.90;45.50
58993;DHT22;44782;0.000;0.000;2023-02-28T00:08:29;12.90;45.50
58993;DHT22;44782;0.000;0.000;2023-02-28T00:10:45;12.90;45.50
58993;DHT22;44782;0.000;0.000;2023-02-28T00:13:04;12.80;45.40
58993;DHT22;44782;0.000;0.000;2023-02-28T00:15:20;12.90;45.30
58993;DHT22;44782;0.000;0.000;2023-02-28T00:17:38;12.90;45.40
58993;DHT22;44782;0.000;0.000;2023-02-28T00:19:53;12.90;46.00
58993;DHT22;44782;0.000;0.000;2023-02-28T00:22:09;12.90;45.30
58993;DHT22;44782;0.000;0.000;2023-02-28T00:24:25;12.90;45.20
58993;DHT22;44782;0.000;0.000;2023-02-28T00:26:41;12.90;45.10
58993;DHT22;44782;0.000;0.000;2023-02-28T00:28:56;12.90;45.10
58993;DHT22;44782;0.000;0.000;2023-02-28T00:31:12;12.90;45.10
58993;DHT22;44782;0.000;0.000;2023-02-28T00:33:28;12.90;45.00
58993;DHT22;44782;0.000;0.000;2023-02-28T00:35:44;13.00;45.00
58993;DHT22;44782;0.000;0.000;2023-02-28T00:38:01;13.00;44.90
58993;DHT22;44782;0.000;0.000;2023-02-28T00:40:17;13.00;44.80
58993;DHT22;44782;0.000;0.000;2023-02-28T00:42:36;13.00;44.80
58993;DHT22;44782;0.000;0.000;2023-02-28T00:44:52;13.00;44.70
58993;DHT22;44782;0.000;0.000;2023-02-28T00:47:08;13.00;44.70
58993;DHT22;44782;0.000;0.000;2023-02-28T00:49:24;13.10;44.70
58993;DHT22;44782;0.000;0.000;2023-02-28T00:51:40;13.10;44.70
58993;DHT22;44782;0.000;0.000;2023-02-28T00:53:56;13.00;45.30
58993;DHT22;44782;0.000;0.000;2023-02-28T00:56:11;13.10;44.60
58993;DHT22;44782;0.000;0.000;2023-02-28T00:58:27;13.10;44.60
58993;DHT22;44782;0.000;0.000;2023-02-28T01:00:42;13.10;44.60
58993;DHT22;44782;0.000;0.000;2023-02-28T01:02:58;13.10;44.50
58993;DHT22;44782;0.000;0.000;2023-02-28T01:05:14;13.10;44.40
58993;DHT22;44782;0.000;0.000;2023-02-28T01:07:30;13.10;44.40
58993;DHT22;44782;0.000;0.000;2023-02-28T01:09:46;13.10;44.40
58993;DHT22;44782;0.000;0.000;2023-02-28T01:12:02;13.10;44.40
58993;DHT22;44782;0.000;0.000;2023-02-28T01:14:18;13.10;44.40
58993;DHT22;44782;0.000;0.000;2023-02-28T01:16:34;13.10;44.30
58993;DHT22;44782;0.000;0.000;2023-02-28T01:18:49;13.10;45.00
58993;DHT22;44782;0.000;0.000;2023-02-28T01:21:13;13.10;44.30
58993;DHT22;44782;0.000;0.000;2023-02-28T01:23:29;13.10;44.10
58993;DHT22;44782;0.000;0.000;2023-02-28T01:25:44;13.10;44.40
58993;DHT22;44782;0.000;0.000;2023-02-28T01:28:00;13.00;44.20
58993;DHT22;44782;0.000;0.000;2023-02-28T01:30:16;13.10;44.20
58993;DHT22;44782;0.000;0.000;2023-02-28T01:32:31;13.00;44.20
58993;DHT22;44782;0.000;0.000;2023-02-28T01:34:47;13.00;44.20
58993;DHT22;44782;0.000;0.000;2023-02-28T01:37:03;13.00;44.20
58993;DHT22;44782;0.000;0.000;2023-02-28T01:39:18;13.00;44.10
58993;DHT22;44782;0.000;0.000;2023-02-28T01:41:34;13.00;44.10
58993;DHT22;44782;0.000;0.000;2023-02-28T01:46:13;13.00;44.10
58993;DHT22;44782;0.000;0.000;2023-02-28T01:48:32;13.00;44.00
58993;DHT22;44782;0.000;0.000;2023-02-28T01:50:50;13.00;44.00
58993;DHT22;44782;0.000;0.000;2023-02-28T01:53:08;13.00;44.10
58993;DHT22;44782;0.000;0.000;2023-02-28T01:55:26;13.00;44.10
58993;DHT22;44782;0.000;0.000;2023-02-28T01:57:48;12.90;44.10
58993;DHT22;44782;0.000;0.000;2023-02-28T02:00:12;13.00;43.90
58993;DHT22;44782;0.000;0.000;2023-02-28T02:02:29;12.90;43.80
58993;DHT22;44782;0.000;0.000;2023-02-28T02:05:00;12.90;44.00
58993;DHT22;44782;0.000;0.000;2023-02-28T02:09:43;12.90;44.00
58993;DHT22;44782;0.000;0.000;2023-02-28T02:12:00;12.90;44.00
58993;DHT22;44782;0.000;0.000;2023-02-28T02:22:54;12.90;43.50
58993;DHT22;44782;0.000;0.000;2023-02-28T02:36:28;12.80;43.60
58993;DHT22;44782;0.000;0.000;2023-02-28T02:39:17;12.80;43.70
58993;DHT22;44782;0.000;0.000;2023-02-28T02:44:14;12.70;43.90
58993;DHT22;44782;0.000;0.000;2023-02-28T02:46:37;12.80;43.70
58993;DHT22;44782;0.000;0.000;2023-02-28T02:48:55;12.70;43.90
58993;DHT22;44782;0.000;0.000;2023-02-28T02:51:15;12.70;43.90
58993;DHT22;44782;0.000;0.000;2023-02-28T02:53:35;12.70;43.80
58993;DHT22;44782;0.000;0.000;2023-02-28T02:55:52;12.70;43.80
58993;DHT22;44782;0.000;0.000;2023-02-28T02:58:14;12.70;43.90
58993;DHT22;44782;0.000;0.000;2023-02-28T03:00:42;12.60;43.80
58993;DHT22;44782;0.000;0.000;2023-02-28T03:02:59;12.70;43.70
58993;DHT22;44782;0.000;0.000;2023-02-28T03:05:29;12.60;43.90
58993;DHT22;44782;0.000;0.000;2023-02-28T03:07:45;12.60;43.70
58993;DHT22;44782;0.000;0.000;2023-02-28T03:10:01;12.60;44.00
58993;DHT22;44782;0.000;0.000;2023-02-28T03:12:20;12.60;44.00
58993;DHT22;44782;0.000;0.000;2023-02-28T03:15:17;12.60;43.80
58993;DHT22;44782;0.000;0.000;2023-02-28T03:22:46;12.60;44.00
58993;DHT22;44782;0.000;0.000;2023-02-28T03:32:32;12.50;43.90
58993;DHT22;44782;0.000;0.000;2023-02-28T03:35:02;12.50;44.00
58993;DHT22;44782;0.000;0.000;2023-02-28T03:37:23;12.50;43.90
58993;DHT22;44782;0.000;0.000;2023-02-28T03:39:41;12.50;44.10
58993;DHT22;44782;0.000;0.000;2023-02-28T03:42:01;12.50;44.10
58993;DHT22;44782;0.000;0.000;2023-02-28T03:44:29;12.50;44.00
58993;DHT22;44782;0.000;0.000;2023-02-28T03:46:54;12.50;44.00
58993;DHT22;44782;0.000;0.000;2023-02-28T03:49:19;12.50;43.90
58993;DHT22;44782;0.000;0.000;2023-02-28T03:51:36;12.50;43.90
58993;DHT22;44782;0.000;0.000;2023-02-28T03:53:56;12.40;44.10
58993;DHT22;44782;0.000;0.000;2023-02-28T03:58:57;12.50;43.70
58993;DHT22;44782;0.000;0.000;2023-02-28T04:01:23;12.40;43.90
58993;DHT22;44782;0.000;0.000;2023-02-28T04:03:41;12.40;43.90
58993;DHT22;44782;0.000;0.000;2023-02-28T04:05:57;12.40;43.90
58993;DHT22;44782;0.000;0.000;2023-02-28T04:08:13;12.50;43.90
58993;DHT22;44782;0.000;0.000;2023-02-28T04:10:29;12.50;43.90
58993;DHT22;44782;0.000;0.000;2023-02-28T04:12:45;12.50;43.90
58993;DHT22;44782;0.000;0.000;2023-02-28T04:15:00;12.50;43.90
58993;DHT22;44782;0.000;0.000;2023-02-28T04:17:16;12.50;43.80
58993;DHT22;44782;0.000;0.000;2023-02-28T04:19:32;12.50;43.80
58993;DHT22;44782;0.000;0.000;2023-02-28T04:21:50;12.60;43.80
58993;DHT22;44782;0.000;0.000;2023-02-28T04:24:07;12.50;43.70
58993;DHT22;44782;0.000;0.000;2023-02-28T04:26:24;12.50;43.70
58993;DHT22;44782;0.000;0.000;2023-02-28T04:28:39;12.60;43.70
58993;DHT22;44782;0.000;0.000;2023-02-28T04:31:00;12.60;43.70
58993;DHT22;44782;0.000;0.000;2023-02-28T04:33:16;12.60;43.60
58993;DHT22;44782;0.000;0.000;2023-02-28T04:35:32;12.70;44.30
58993;DHT22;44782;0.000;0.000;2023-02-28T04:37:47;12.70;43.60
58993;DHT22;44782;0.000;0.000;2023-02-28T04:40:03;12.70;43.60
58993;DHT22;44782;0.000;0.000;2023-02-28T04:42:19;12.70;43.50
58993;DHT22;44782;0.000;0.000;2023-02-28T04:44:35;12.70;43.50
58993;DHT22;44782;0.000;0.000;2023-02-28T04:46:50;12.70;43.60
58993;DHT22;44782;0.000;0.000;2023-02-28T04:49:06;12.70;43.50
58993;DHT22;44782;0.000;0.000;2023-02-28T04:51:23;12.70;43.50
58993;DHT22;44782;0.000;0.000;2023-02-28T04:53:40;12.70;43.50
58993;DHT22;44782;0.000;0.000;2023-02-28T04:55:57;12.70;43.40
58993;DHT22;44782;0.000;0.000;2023-02-28T04:58:13;12.80;44.20
58993;DHT22;44782;0.000;0.000;2023-02-28T05:00:29;12.80;43.40
58993;DHT22;44782;0.000;0.000;2023-02-28T05:02:45;12.80;43.40
58993;DHT22;44782;0.000;0.000;2023-02-28T05:05:00;12.70;43.40
58993;DHT22;44782;0.000;0.000;2023-02-28T05:07:16;12.70;43.40
58993;DHT22;44782;0.000;0.000;2023-02-28T05:09:32;12.70;43.40
58993;DHT22;44782;0.000;0.000;2023-02-28T05:11:48;12.70;43.40
58993;DHT22;44782;0.000;0.000;2023-02-28T05:14:06;12.70;43.40
58993;DHT22;44782;0.000;0.000;2023-02-28T05:16:24;12.70;43.30
58993;DHT22;44782;0.000;0.000;2023-02-28T05:18:40;12.70;43.40
58993;DHT22;44782;0.000;0.000;2023-02-28T05:20:55;12.70;43.40
58993;DHT22;44782;0.000;0.000;2023-02-28T05:23:12;12.70;43.30
58993;DHT22;44782;0.000;0.000;2023-02-28T05:25:28;12.70;43.30
58993;DHT22;44782;0.000;0.000;2023-02-28T05:27:44;12.70;43.30
58993;DHT22;44782;0.000;0.000;2023-02-28T05:30:00;12.70;43.30
58993;DHT22;44782;0.000;0.000;2023-02-28T05:32:18;12.70;43.30
58993;DHT22;44782;0.000;0.000;2023-02-28T05:34:34;12.70;43.30
58993;DHT22;44782;0.000;0.000;2023-02-28T05:36:49;12.70;43.30
58993;DHT22;44782;0.000;0.000;2023-02-28T05:39:06;12.60;43.30
58993;DHT22;44782;0.000;0.000;2023-02-28T05:41:22;12.60;43.20
58993;DHT22;44782;0.000;0.000;2023-02-28T05:43:38;12.60;43.30
58993;DHT22;44782;0.000;0.000;2023-02-28T05:45:54;12.60;43.30
58993;DHT22;44782;0.000;0.000;2023-02-28T05:48:09;12.60;43.30
58993;DHT22;44782;0.000;0.000;2023-02-28T05:50:25;12.60;43.40
58993;DHT22;44782;0.000;0.000;2023-02-28T05:52:41;12.60;43.40
58993;DHT22;44782;0.000;0.000;2023-02-28T05:54:57;12.60;43.30
58993;DHT22;44782;0.000;0.000;2023-02-28T05:57:12;12.60;43.40
58993;DHT22;44782;0.000;0.000;2023-02-28T05:59:28;12.60;43.40
58993;DHT22;44782;0.000;0.000;2023-02-28T06:01:45;12.60;43.40
58993;DHT22;44782;0.000;0.000;2023-02-28T06:04:05;12.60;43.30
58993;DHT22;44782;0.000;0.000;2023-02-28T06:06:21;12.60;43.40
58993;DHT22;44782;0.000;0.000;2023-02-28T06:08:36;12.60;43.30
58993;DHT22;44782;0.000;0.000;2023-02-28T06:10:52;12.50;43.30
58993;DHT22;44782;0.000;0.000;2023-02-28T06:13:08;12.50;43.30
58993;DHT22;44782;0.000;0.000;2023-02-28T06:15:24;12.50;43.40
58993;DHT22;44782;0.000;0.000;2023-02-28T06:17:41;12.50;43.40
58993;DHT22;44782;0.000;0.000;2023-02-28T06:19:56;12.50;43.40
58993;DHT22;44782;0.000;0.000;2023-02-28T06:22:12;12.50;43.40
58993;DHT22;44782;0.000;0.000;2023-02-28T06:24:28;12.50;43.40
58993;DHT22;44782;0.000;0.000;2023-02-28T06:26:43;12.40;43.40
58993;DHT22;44782;0.000;0.000;2023-02-28T06:28:59;12.40;43.50
58993;DHT22;44782;0.000;0.000;2023-02-28T06:31:17;12.40;43.40
58993;DHT22;44782;0.000;0.000;2023-02-28T06:33:33;12.40;43.40
58993;DHT22;44782;0.000;0.000;2023-02-28T06:35:52;12.40;43.50
58993;DHT22;44782;0.000;0.000;2023-02-28T06:38:08;12.40;43.40
58993;DHT22;44782;0.000;0.000;2023-02-28T06:40:24;12.40;43.50
58993;DHT22;44782;0.000;0.000;2023-02-28T06:42:39;12.40;43.50
58993;DHT22;44782;0.000;0.000;2023-02-28T06:44:55;12.30;43.50
58993;DHT22;44782;0.000;0.000;2023-02-28T06:47:11;12.40;43.60
58993;DHT22;44782;0.000;0.000;2023-02-28T06:49:27;12.30;43.50
58993;DHT22;44782;0.000;0.000;2023-02-28T06:51:44;12.30;43.60
58993;DHT22;44782;0.000;0.000;2023-02-28T06:54:03;12.30;43.60
58993;DHT22;44782;0.000;0.000;2023-02-28T06:56:19;12.30;43.60
58993;DHT22;44782;0.000;0.000;2023-02-28T06:58:38;12.30;43.60
58993;DHT22;44782;0.000;0.000;2023-02-28T07:00:54;12.30;43.60
58993;DHT22;44782;0.000;0.000;2023-02-28T07:03:11;12.20;43.60
58993;DHT22;44782;0.000;0.000;2023-02-28T07:05:27;12.20;43.70
58993;DHT22;44782;0.000;0.000;2023-02-28T07:07:42;12.20;43.70
58993;DHT22;44782;0.000;0.000;2023-02-28T07:10:00;12.20;43.80
58993;DHT22;44782;0.000;0.000;2023-02-28T07:12:16;12.20;43.80
58993;DHT22;44782;0.000;0.000;2023-02-28T07:14:32;12.20;43.70
58993;DHT22;44782;0.000;0.000;2023-02-28T07:16:47;12.20;43.80
58993;DHT22;44782;0.000;0.000;2023-02-28T07:19:03;12.20;43.80
58993;DHT22;44782;0.000;0.000;2023-02-28T07:21:19;12.20;43.80
58993;DHT22;44782;0.000;0.000;2023-02-28T07:23:35;12.10;43.80
58993;DHT22;44782;0.000;0.000;2023-02-28T07:25:53;12.20;43.80
58993;DHT22;44782;0.000;0.000;2023-02-28T07:28:08;12.20;43.80
58993;DHT22;44782;0.000;0.000;2023-02-28T07:30:24;12.20;43.80
58993;DHT22;44782;0.000;0.000;2023-02-28T07:32:40;12.20;43.80
58993;DHT22;44782;0.000;0.000;2023-02-28T07:34:55;12.20;43.80
58993;DHT22;44782;0.000;0.000;2023-02-28T07:37:11;12.20;43.80
58993;DHT22;44782;0.000;0.000;2023-02-28T07:39:27;12.20;43.70
58993;DHT22;44782;0.000;0.000;2023-02-28T07:41:42;12.20;43.80
58993;DHT22;44782;0.000;0.000;2023-02-28T07:43:59;12.20;43.70
58993;DHT22;44782;0.000;0.000;2023-02-28T07:46:16;12.10;43.70
58993;DHT22;44782;0.000;0.000;2023-02-28T07:48:32;12.20;43.80
58993;DHT22;44782;0.000;0.000;2023-02-28T07:50:55;12.20;43.80
58993;DHT22;44782;0.000;0.000;2023-02-28T07:53:11;12.20;43.70
58993;DHT22;44782;0.000;0.000;2023-02-28T07:55:26;12.10;43.80
58993;DHT22;44782;0.000;0.000;2023-02-28T07:57:42;12.10;43.70
58993;DHT22;44782;0.000;0.000;2023-02-28T07:59:58;12.10;43.70
58993;DHT22;44782;0.000;0.000;2023-02-28T08:02:15;12.10;44.30
58993;DHT22;44782;0.000;0.000;2023-02-28T08:04:34;12.20;43.80
58993;DHT22;44782;0.000;0.000;2023-02-28T08:06:49;12.20;43.60
58993;DHT22;44782;0.000;0.000;2023-02-28T08:09:07;12.20;43.60
58993;DHT22;44782;0.000;0.000;2023-02-28T08:11:23;12.20;43.60
58993;DHT22;44782;0.000;0.000;2023-02-28T08:13:39;12.20;43.60
58993;DHT22;44782;0.000;0.000;2023-02-28T08:15:56;12.20;43.50
58993;DHT22;44782;0.000;0.000;2023-02-28T08:18:11;12.20;43.50
58993;DHT22;44782;0.000;0.000;2023-02-28T08:20:27;12.20;43.50
58993;DHT22;44782;0.000;0.000;2023-02-28T08:22:43;12.30;43.50
58993;DHT22;44782;0.000;0.000;2023-02-28T08:24:59;12.30;43.50
58993;DHT22;44782;0.000;0.000;2023-02-28T08:27:15;12.30;43.50
58993;DHT22;44782;0.000;0.000;2023-02-28T08:29:30;12.30;43.40
58993;DHT22;44782;0.000;0.000;2023-02-28T08:31:46;12.40;43.40
58993;DHT22;44782;0.000;0.000;2023-02-28T08:34:09;12.40;43.40
58993;DHT22;44782;0.000;0.000;2023-02-28T08:36:26;12.40;43.20
58993;DHT22;44782;0.000;0.000;2023-02-28T08:38:44;12.40;43.40
58993;DHT22;44782;0.000;0.000;2023-02-28T08:41:08;12.50;43.40
58993;DHT22;44782;0.000;0.000;2023-02-28T08:43:24;12.50;43.10
58993;DHT22;44782;0.000;0.000;2023-02-28T08:45:40;12.50;43.30
58993;DHT22;44782;0.000;0.000;2023-02-28T08:47:56;12.60;43.40
58993;DHT22;44782;0.000;0.000;2023-02-28T08:50:11;12.60;43.30
58993;DHT22;44782;0.000;0.000;2023-02-28T08:52:30;12.60;43.30
58993;DHT22;44782;0.000;0.000;2023-02-28T08:54:45;12.60;43.20
58993;DHT22;44782;0.000;0.000;2023-02-28T08:57:02;12.70;43.10
58993;DHT22;44782;0.000;0.000;2023-02-28T08:59:18;12.70;43.10
58993;DHT22;44782;0.000;0.000;2023-02-28T09:01:33;12.70;43.00
58993;DHT22;44782;0.000;0.000;2023-02-28T09:03:50;12.70;43.00
58993;DHT22;44782;0.000;0.000;2023-02-28T09:06:06;12.70;43.00
58993;DHT22;44782;0.000;0.000;2023-02-28T09:08:24;12.70;42.90
58993;DHT22;44782;0.000;0.000;2023-02-28T09:10:39;12.70;42.90
58993;DHT22;44782;0.000;0.000;2023-02-28T09:12:55;12.70;42.90
58993;DHT22;44782;0.000;0.000;2023-02-28T09:15:10;12.70;42.90
58993;DHT22;44782;0.000;0.000;2023-02-28T09:17:26;12.80;42.90
58993;DHT22;44782;0.000;0.000;2023-02-28T09:19:42;12.70;42.80
58993;DHT22;44782;0.000;0.000;2023-02-28T09:21:58;12.70;42.80
58993;DHT22;44782;0.000;0.000;2023-02-28T09:24:13;12.70;42.90
58993;DHT22;44782;0.000;0.000;2023-02-28T09:26:30;12.80;42.80
58993;DHT22;44782;0.000;0.000;2023-02-28T09:28:46;12.70;42.70
58993;DHT22;44782;0.000;0.000;2023-02-28T09:31:01;12.70;42.80
58993;DHT22;44782;0.000;0.000;2023-02-28T09:33:21;12.70;42.80
58993;DHT22;44782;0.000;0.000;2023-02-28T09:35:37;12.70;42.80
58993;DHT22;44782;0.000;0.000;2023-02-28T09:37:53;12.70;42.80
58993;DHT22;44782;0.000;0.000;2023-02-28T09:40:10;12.80;43.00
58993;DHT22;44782;0.000;0.000;2023-02-28T09:42:33;12.80;42.90
58993;DHT22;44782;0.000;0.000;2023-02-28T09:44:50;12.80;42.70
58993;DHT22;44782;0.000;0.000;2023-02-28T09:47:27;12.70;42.90
58993;DHT22;44782;0.000;0.000;2023-02-28T09:49:47;12.80;42.80
58993;DHT22;44782;0.000;0.000;2023-02-28T09:52:12;12.80;42.80
58993;DHT22;44782;0.000;0.000;2023-02-28T09:54:30;12.70;42.70
58993;DHT22;44782;0.000;0.000;2023-02-28T10:02:01;12.70;42.70
58993;DHT22;44782;0.000;0.000;2023-02-28T10:06:50;12.70;43.00
58993;DHT22;44782;0.000;0.000;2023-02-28T10:09:13;12.70;43.10
58993;DHT22;44782;0.000;0.000;2023-02-28T10:11:32;12.70;42.90
58993;DHT22;44782;0.000;0.000;2023-02-28T10:14:02;12.70;43.00
58993;DHT22;44782;0.000;0.000;2023-02-28T10:16:31;12.70;42.90
58993;DHT22;44782;0.000;0.000;2023-02-28T10:21:47;12.60;42.90
58993;DHT22;44782;0.000;0.000;2023-02-28T10:24:23;12.60;42.90
58993;DHT22;44782;0.000;0.000;2023-02-28T10:26:44;12.60;42.90
58993;DHT22;44782;0.000;0.000;2023-02-28T10:29:00;12.60;43.00
58993;DHT22;44782;0.000;0.000;2023-02-28T10:31:19;12.60;43.10
58993;DHT22;44782;0.000;0.000;2023-02-28T10:33:35;12.60;43.00
58993;DHT22;44782;0.000;0.000;2023-02-28T10:35:52;12.60;43.10
58993;DHT22;44782;0.000;0.000;2023-02-28T10:38:17;12.60;43.10
58993;DHT22;44782;0.000;0.000;2023-02-28T10:40:34;12.60;43.00
58993;DHT22;44782;0.000;0.000;2023-02-28T10:42:56;12.60;43.10
58993;DHT22;44782;0.000;0.000;2023-02-28T10:45:14;12.60;43.00
58993;DHT22;44782;0.000;0.000;2023-02-28T10:47:31;12.60;42.90
58993;DHT22;44782;0.000;0.000;2023-02-28T10:49:49;12.50;43.00
58993;DHT22;44782;0.000;0.000;2023-02-28T10:52:09;12.50;43.00
58993;DHT22;44782;0.000;0.000;2023-02-28T10:54:31;12.60;43.00
58993;DHT22;44782;0.000;0.000;2023-02-28T10:57:20;12.60;43.00
58993;DHT22;44782;0.000;0.000;2023-02-28T10:59:37;12.50;42.80
58993;DHT22;44782;0.000;0.000;2023-02-28T11:01:52;12.50;43.10
58993;DHT22;44782;0.000;0.000;2023-02-28T11:06:45;12.60;42.70
58993;DHT22;44782;0.000;0.000;2023-02-28T11:09:13;12.50;43.00
58993;DHT22;44782;0.000;0.000;2023-02-28T11:11:43;12.50;42.90
58993;DHT22;44782;0.000;0.000;2023-02-28T11:14:04;12.50;42.80
58993;DHT22;44782;0.000;0.000;2023-02-28T11:16:21;12.50;42.90
58993;DHT22;44782;0.000;0.000;2023-02-28T11:21:03;12.50;43.00
58993;DHT22;44782;0.000;0.000;2023-02-28T11:23:19;12.40;43.00
58993;DHT22;44782;0.000;0.000;2023-02-28T11:25:38;12.40;43.00
58993;DHT22;44782;0.000;0.000;2023-02-28T11:27:56;12.50;42.90
58993;DHT22;44782;0.000;0.000;2023-02-28T11:32:48;12.40;42.70
58993;DHT22;44782;0.000;0.000;2023-02-28T11:37:28;12.40;43.00
58993;DHT22;44782;0.000;0.000;2023-02-28T11:39:45;12.40;43.00
58993;DHT22;44782;0.000;0.000;2023-02-28T11:42:23;12.30;42.90
58993;DHT22;44782;0.000;0.000;2023-02-28T11:55:54;12.30;42.90
58993;DHT22;44782;0.000;0.000;2023-02-28T12:05:54;12.30;43.00
58993;DHT22;44782;0.000;0.000;2023-02-28T12:10:42;12.20;43.10
58993;DHT22;44782;0.000;0.000;2023-02-28T12:13:18;12.20;43.00
58993;DHT22;44782;0.000;0.000;2023-02-28T12:28:27;12.20;43.00
58993;DHT22;44782;0.000;0.000;2023-02-28T12:30:53;12.20;43.20
58993;DHT22;44782;0.000;0.000;2023-02-28T12:33:12;12.20;42.90
58993;DHT22;44782;0.000;0.000;2023-02-28T12:38:02;12.20;43.00
58993;DHT22;44782;0.000;0.000;2023-02-28T12:40:22;12.20;43.70
58993;DHT22;44782;0.000;0.000;2023-02-28T12:42:59;12.10;43.00
58993;DHT22;44782;0.000;0.000;2023-02-28T12:45:20;12.20;42.80
58993;DHT22;44782;0.000;0.000;2023-02-28T12:47:38;12.10;42.90
58993;DHT22;44782;0.000;0.000;2023-02-28T12:50:05;12.20;43.00
58993;DHT22;44782;0.000;0.000;2023-02-28T12:52:28;12.20;43.00
58993;DHT22;44782;0.000;0.000;2023-02-28T12:55:05;12.20;42.90
58993;DHT22;44782;0.000;0.000;2023-02-28T12:59:53;12.20;43.10
58993;DHT22;44782;0.000;0.000;2023-02-28T13:05:14;12.20;43.00
58993;DHT22;44782;0.000;0.000;2023-02-28T13:07:29;12.30;43.00
58993;DHT22;44782;0.000;0.000;2023-02-28T13:09:59;12.30;43.10
58993;DHT22;44782;0.000;0.000;2023-02-28T13:12:16;12.40;42.90
58993;DHT22;44782;0.000;0.000;2023-02-28T13:14:38;12.30;42.90
58993;DHT22;44782;0.000;0.000;2023-02-28T13:19:33;12.40;42.90
58993;DHT22;44782;0.000;0.000;2023-02-28T13:21:50;12.40;42.90
58993;DHT22;44782;0.000;0.000;2023-02-28T13:24:09;12.40;42.90
58993;DHT22;44782;0.000;0.000;2023-02-28T13:31:05;12.50;42.80
58993;DHT22;44782;0.000;0.000;2023-02-28T13:38:42;12.50;42.60
58993;DHT22;44782;0.000;0.000;2023-02-28T13:44:10;12.60;42.50
58993;DHT22;44782;0.000;0.000;2023-02-28T13:46:27;12.60;42.60
58993;DHT22;44782;0.000;0.000;2023-02-28T13:48:42;12.50;42.70
58993;DHT22;44782;0.000;0.000;2023-02-28T13:50:58;12.50;42.70
58993;DHT22;44782;0.000;0.000;2023-02-28T13:58:23;12.60;42.40
58993;DHT22;44782;0.000;0.000;2023-02-28T14:03:36;12.60;42.40
58993;DHT22;44782;0.000;0.000;2023-02-28T14:08:29;12.60;42.10
58993;DHT22;44782;0.000;0.000;2023-02-28T14:10:52;12.50;42.40
58993;DHT22;44782;0.000;0.000;2023-02-28T14:13:41;12.50;42.30
58993;DHT22;44782;0.000;0.000;2023-02-28T14:16:01;12.60;42.00
58993;DHT22;44782;0.000;0.000;2023-02-28T14:20:41;12.60;42.40
58993;DHT22;44782;0.000;0.000;2023-02-28T14:23:09;12.50;42.00
58993;DHT22;44782;0.000;0.000;2023-02-28T14:25:34;12.50;42.20
58993;DHT22;44782;0.000;0.000;2023-02-28T14:38:56;12.60;41.90
58993;DHT22;44782;0.000;0.000;2023-02-28T14:41:29;12.50;41.90
58993;DHT22;44782;0.000;0.000;2023-02-28T14:43:54;12.50;42.10
58993;DHT22;44782;0.000;0.000;2023-02-28T14:46:12;12.50;42.10
58993;DHT22;44782;0.000;0.000;2023-02-28T14:48:29;12.50;42.20
58993;DHT22;44782;0.000;0.000;2023-02-28T14:50:51;12.50;42.20
58993;DHT22;44782;0.000;0.000;2023-02-28T14:53:17;12.50;41.90
58993;DHT22;44782;0.000;0.000;2023-02-28T14:55:35;12.50;42.00
58993;DHT22;44782;0.000;0.000;2023-02-28T14:57:56;12.50;42.30
58993;DHT22;44782;0.000;0.000;2023-02-28T15:00:16;12.50;42.10
58993;DHT22;44782;0.000;0.000;2023-02-28T15:02:36;12.50;42.20
58993;DHT22;44782;0.000;0.000;2023-02-28T15:05:00;12.50;42.30
58993;DHT22;44782;0.000;0.000;2023-02-28T15:07:16;12.50;42.20
58993;DHT22;44782;0.000;0.000;2023-02-28T15:09:32;12.40;42.30
58993;DHT22;44782;0.000;0.000;2023-02-28T15:11:49;12.50;42.30
58993;DHT22;44782;0.000;0.000;2023-02-28T15:14:05;12.40;42.90
58993;DHT22;44782;0.000;0.000;2023-02-28T15:18:57;12.40;42.30
58993;DHT22;44782;0.000;0.000;2023-02-28T15:21:15;12.50;42.00
58993;DHT22;44782;0.000;0.000;2023-02-28T15:23:36;12.40;42.30
58993;DHT22;44782;0.000;0.000;2023-02-28T15:25:53;12.40;42.20
58993;DHT22;44782;0.000;0.000;2023-02-28T15:28:17;12.40;42.20
58993;DHT22;44782;0.000;0.000;2023-02-28T15:30:34;12.40;42.20
58993;DHT22;44782;0.000;0.000;2023-02-28T15:33:04;12.40;42.20
58993;DHT22;44782;0.000;0.000;2023-02-28T15:35:27;12.40;42.00
58993;DHT22;44782;0.000;0.000;2023-02-28T15:40:54;12.40;42.10
58993;DHT22;44782;0.000;0.000;2023-02-28T15:43:18;12.40;41.90
58993;DHT22;44782;0.000;0.000;2023-02-28T15:45:47;12.30;42.20
58993;DHT22;44782;0.000;0.000;2023-02-28T15:48:05;12.30;42.20
58993;DHT22;44782;0.000;0.000;2023-02-28T15:50:28;12.30;42.30
58993;DHT22;44782;0.000;0.000;2023-02-28T15:52:45;12.30;42.30
58993;DHT22;44782;0.000;0.000;2023-02-28T15:55:22;12.30;42.30
58993;DHT22;44782;0.000;0.000;2023-02-28T15:57:39;12.30;42.20
58993;DHT22;44782;0.000;0.000;2023-02-28T16:00:01;12.30;42.40
58993;DHT22;44782;0.000;0.000;2023-02-28T16:02:22;12.30;42.30
58993;DHT22;44782;0.000;0.000;2023-02-28T16:04:58;12.30;42.40
58993;DHT22;44782;0.000;0.000;2023-02-28T16:07:14;12.30;42.20
58993;DHT22;44782;0.000;0.000;2023-02-28T16:09:30;12.30;42.50
58993;DHT22;44782;0.000;0.000;2023-02-28T16:11:52;12.30;42.50
58993;DHT22;44782;0.000;0.000;2023-02-28T16:14:14;12.30;42.30
58993;DHT22;44782;0.000;0.000;2023-02-28T16:16:31;12.30;42.30
58993;DHT22;44782;0.000;0.000;2023-02-28T16:18:48;12.20;42.40
58993;DHT22;44782;0.000;0.000;2023-02-28T16:21:04;12.20;42.40
58993;DHT22;44782;0.000;0.000;2023-02-28T16:23:19;12.20;42.40
58993;DHT22;44782;0.000;0.000;2023-02-28T16:25:40;12.20;42.40
58993;DHT22;44782;0.000;0.000;2023-02-28T16:27:56;12.20;42.40
58993;DHT22;44782;0.000;0.000;2023-02-28T16:30:24;12.20;42.50
58993;DHT22;44782;0.000;0.000;2023-02-28T16:32:40;12.20;42.40
58993;DHT22;44782;0.000;0.000;2023-02-28T16:34:56;12.20;42.50
58993;DHT22;44782;0.000;0.000;2023-02-28T16:37:14;12.20;42.40
58993;DHT22;44782;0.000;0.000;2023-02-28T16:39:30;12.20;42.60
58993;DHT22;44782;0.000;0.000;2023-02-28T16:41:46;12.20;42.50
58993;DHT22;44782;0.000;0.000;2023-02-28T16:44:13;12.10;42.50
58993;DHT22;44782;0.000;0.000;2023-02-28T16:46:35;12.20;42.40
58993;DHT22;44782;0.000;0.000;2023-02-28T16:48:51;12.20;42.40
58993;DHT22;44782;0.000;0.000;2023-02-28T16:51:16;12.20;42.60
58993;DHT22;44782;0.000;0.000;2023-02-28T16:53:32;12.20;42.50
58993;DHT22;44782;0.000;0.000;2023-02-28T16:55:48;12.20;42.60
58993;DHT22;44782;0.000;0.000;2023-02-28T16:58:06;12.10;42.50
58993;DHT22;44782;0.000;0.000;2023-02-28T17:00:22;12.20;42.60
58993;DHT22;44782;0.000;0.000;2023-02-28T17:02:38;12.10;42.60
58993;DHT22;44782;0.000;0.000;2023-02-28T17:04:54;12.10;42.60
58993;DHT22;44782;0.000;0.000;2023-02-28T17:07:14;12.10;42.60
58993;DHT22;44782;0.000;0.000;2023-02-28T17:09:31;12.10;42.50
58993;DHT22;44782;0.000;0.000;2023-02-28T17:11:47;12.10;42.60
58993;DHT22;44782;0.000;0.000;2023-02-28T17:14:03;12.10;42.60
58993;DHT22;44782;0.000;0.000;2023-02-28T17:18:37;12.10;42.60
58993;DHT22;44782;0.000;0.000;2023-02-28T17:20:54;12.10;42.70
58993;DHT22;44782;0.000;0.000;2023-02-28T17:23:09;12.10;42.70